Darstellungsparameter: Aktuell verwendete Einstellungen:
Skalierung der Graphiken ... ?
xyx+y,   Skalierungsfaktor:      Skalierung: Modus: x, Faktor: 1
Darstellungszeitraum ... ?
Vom - - bis: - -   Zeitraum: 06.02.2006 - 12.02.2006
Min/Max/Avg-Anzeige ... ?
Zeige MMA aktuell
Zeige MMA Monat
Zeige MMA alles
Zeige --A aktuell
Zeige --A Monat
Zeige --A alles
Keine MMA-Anzeige
MMA:
Keine MMA-Graphiken
MMA-Basis: 06.02.2006 - 12.02.2006
Quicknavigation für Darstellung... ?
Tage:      1T, 2T, 3T, 5T -1T -2T -3T -5T +1T +2T +3T +5T
Wochen: 1W, 2W, 3W -1W -2W -3W +1W +2W +3W
Monate: 1M, 3M, 6M -1M -3M -6M +1M +3M +6M
Jahre:    1J, 3J, 5J, 10J -1J -3J -5J -10J +1J +3J +5J +10J
Nutze für die Darstellung ... ?
Originaldaten oder Mittelwerte auf ...
Stundenbasis Tagesbasis Wochenbasis
Monatsbasis Jahresbasis      Datenbasis: Original-Daten
Darstellen als:
Statistik (Auto) Statistik J:M      Darstellung:
Zur Graphik,    zurück zur Übersicht aller Sensoren.
 
Tabellarische Datenbersicht: ?
 
Sensor: Nr:Datum:Temp:Feuchte:Taupunkt:
Aussen-T/F 1 06-02-2006 00:00:41 0.4 C 87 % -1.5 C
2 06-02-2006 00:10:42 0.4 C 87 % -1.5 C
3 06-02-2006 00:20:43 0.4 C 87 % -1.5 C
4 06-02-2006 00:30:43 0.4 C 87 % -1.5 C
5 06-02-2006 00:40:42 0.4 C 87 % -1.5 C
6 06-02-2006 00:50:42 0.4 C 87 % -1.5 C
7 06-02-2006 01:00:42 0.4 C 88 % -1.35 C
8 06-02-2006 01:10:42 0.4 C 88 % -1.35 C
9 06-02-2006 01:20:42 0.4 C 88 % -1.35 C
10 06-02-2006 01:30:42 0.4 C 88 % -1.35 C
11 06-02-2006 01:40:43 0.4 C 88 % -1.35 C
12 06-02-2006 01:50:42 0.4 C 88 % -1.35 C
13 06-02-2006 02:00:42 0.4 C 88 % -1.35 C
14 06-02-2006 02:10:42 0.4 C 88 % -1.35 C
15 06-02-2006 02:20:43 0.4 C 88 % -1.35 C
16 06-02-2006 02:30:43 0.4 C 88 % -1.35 C
17 06-02-2006 02:40:43 0.4 C 88 % -1.35 C
18 06-02-2006 02:51:44 0.4 C 88 % -1.35 C
19 06-02-2006 03:01:44 0.4 C 88 % -1.35 C
20 06-02-2006 03:11:44 0.5 C 88 % -1.25 C
21 06-02-2006 03:21:44 0.5 C 88 % -1.25 C
22 06-02-2006 03:31:44 0.5 C 88 % -1.25 C
23 06-02-2006 03:41:44 0.5 C 88 % -1.25 C
24 06-02-2006 03:51:44 0.5 C 88 % -1.25 C
25 06-02-2006 04:01:43 0.5 C 88 % -1.25 C
Sensor: Nr:Datum:Temp:Feuchte:Taupunkt:
Aussen-T/F 26 06-02-2006 04:11:43 0.5 C 88 % -1.25 C
27 06-02-2006 04:21:44 0.5 C 88 % -1.25 C
28 06-02-2006 04:31:43 0.4 C 88 % -1.35 C
29 06-02-2006 04:41:43 0.4 C 89 % -1.2 C
30 06-02-2006 04:51:44 0.4 C 89 % -1.2 C
31 06-02-2006 05:01:44 0.5 C 89 % -1.1 C
32 06-02-2006 05:11:44 0.4 C 89 % -1.2 C
33 06-02-2006 05:21:44 0.4 C 89 % -1.2 C
34 06-02-2006 05:31:44 0.5 C 89 % -1.1 C
35 06-02-2006 05:41:44 0.4 C 90 % -1.04 C
36 06-02-2006 05:51:44 0.4 C 90 % -1.04 C
37 06-02-2006 06:01:44 0.4 C 90 % -1.04 C
38 06-02-2006 06:11:44 0.4 C 90 % -1.04 C
39 06-02-2006 06:21:44 0.5 C 90 % -0.95 C
40 06-02-2006 06:31:44 0.5 C 90 % -0.95 C
41 06-02-2006 06:41:44 0.5 C 90 % -0.95 C
42 06-02-2006 06:51:44 0.5 C 90 % -0.95 C
43 06-02-2006 07:01:44 0.5 C 90 % -0.95 C
44 06-02-2006 07:11:44 0.5 C 90 % -0.95 C
45 06-02-2006 07:21:44 0.5 C 90 % -0.95 C
46 06-02-2006 07:31:44 0.5 C 90 % -0.95 C
47 06-02-2006 07:41:44 0.4 C 90 % -1.04 C
48 06-02-2006 07:51:45 0.4 C 90 % -1.04 C
49 06-02-2006 08:01:44 0.4 C 91 % -0.89 C
50 06-02-2006 08:11:44 0.4 C 91 % -0.89 C
Sensor: Nr:Datum:Temp:Feuchte:Taupunkt:
Aussen-T/F 51 06-02-2006 08:21:44 0.4 C 91 % -0.89 C
52 06-02-2006 08:31:44 0.5 C 92 % -0.65 C
53 06-02-2006 08:41:44 0.5 C 92 % -0.65 C
54 06-02-2006 08:51:44 0.5 C 92 % -0.65 C
55 06-02-2006 09:01:45 0.5 C 92 % -0.65 C
56 06-02-2006 09:11:45 0.6 C 92 % -0.55 C
57 06-02-2006 09:21:44 0.6 C 92 % -0.55 C
58 06-02-2006 09:31:44 0.7 C 92 % -0.45 C
59 06-02-2006 09:41:44 0.7 C 92 % -0.45 C
60 06-02-2006 09:51:44 0.8 C 92 % -0.35 C
61 06-02-2006 10:01:45 0.9 C 91 % -0.4 C
62 06-02-2006 10:11:45 1.1 C 90 % -0.35 C
63 06-02-2006 10:21:45 1.3 C 89 % -0.31 C
64 06-02-2006 10:31:44 1.3 C 88 % -0.46 C
65 06-02-2006 10:41:44 1.5 C 88 % -0.27 C
66 06-02-2006 10:51:44 1.9 C 87 % -0.03 C
67 06-02-2006 11:01:44 2 C 84 % -0.41 C
68 06-02-2006 11:11:44 2.1 C 83 % -0.48 C
69 06-02-2006 11:21:44 2.1 C 82 % -0.64 C
70 06-02-2006 11:31:45 2.2 C 82 % -0.55 C
71 06-02-2006 11:41:45 2.4 C 82 % -0.35 C
72 06-02-2006 11:51:45 2.4 C 81 % -0.52 C
73 06-02-2006 12:01:45 2.6 C 82 % -0.16 C
74 06-02-2006 12:11:45 3 C 81 % 0.07 C
75 06-02-2006 12:21:45 2.6 C 80 % -0.49 C
Sensor: Nr:Datum:Temp:Feuchte:Taupunkt:
Aussen-T/F 76 06-02-2006 12:31:44 2.8 C 80 % -0.3 C
77 06-02-2006 12:41:44 2.8 C 80 % -0.3 C
78 06-02-2006 12:51:44 2.8 C 80 % -0.3 C
79 06-02-2006 13:01:45 2.6 C 80 % -0.49 C
80 06-02-2006 13:11:45 2.4 C 81 % -0.52 C
81 06-02-2006 13:21:45 2.6 C 82 % -0.16 C
82 06-02-2006 13:31:44 2.6 C 82 % -0.16 C
83 06-02-2006 13:41:44 2.5 C 82 % -0.25 C
84 06-02-2006 13:51:45 2.4 C 82 % -0.35 C
85 06-02-2006 14:01:44 2.5 C 83 % -0.09 C
86 06-02-2006 14:11:44 2.5 C 83 % -0.09 C
87 06-02-2006 14:21:44 2.5 C 83 % -0.09 C
88 06-02-2006 14:31:45 2.6 C 83 % 0.01 C
89 06-02-2006 14:41:45 2.6 C 84 % 0.18 C
90 06-02-2006 14:51:45 2.6 C 84 % 0.18 C
91 06-02-2006 15:01:45 2.5 C 85 % 0.24 C
92 06-02-2006 15:11:45 2.6 C 85 % 0.34 C
93 06-02-2006 15:21:45 2.6 C 86 % 0.5 C
94 06-02-2006 15:31:44 2.6 C 86 % 0.5 C
95 06-02-2006 15:41:44 2.5 C 86 % 0.4 C
96 06-02-2006 15:51:45 2.4 C 87 % 0.46 C
97 06-02-2006 16:01:45 2.4 C 87 % 0.46 C
98 06-02-2006 16:11:45 2.3 C 87 % 0.36 C
99 06-02-2006 16:21:45 2.2 C 87 % 0.27 C
100 06-02-2006 16:31:45 2.2 C 88 % 0.42 C
Sensor: Nr:Datum:Temp:Feuchte:Taupunkt:
Aussen-T/F 101 06-02-2006 16:41:45 2.2 C 88 % 0.42 C
102 06-02-2006 16:51:45 2.1 C 88 % 0.33 C
103 06-02-2006 17:01:45 2.1 C 88 % 0.33 C
104 06-02-2006 17:11:45 2.1 C 88 % 0.33 C
105 06-02-2006 17:21:45 2.2 C 88 % 0.42 C
106 06-02-2006 17:31:45 2.2 C 88 % 0.42 C
107 06-02-2006 17:41:45 2.2 C 88 % 0.42 C
108 06-02-2006 17:51:45 2.1 C 88 % 0.33 C
109 06-02-2006 18:01:46 2.2 C 88 % 0.42 C
110 06-02-2006 18:11:46 2.1 C 88 % 0.33 C
111 06-02-2006 18:21:45 2.1 C 88 % 0.33 C
112 06-02-2006 18:31:45 2.1 C 89 % 0.48 C
113 06-02-2006 18:41:45 2.1 C 89 % 0.48 C
114 06-02-2006 18:51:45 2.1 C 89 % 0.48 C
115 06-02-2006 19:01:45 2.1 C 89 % 0.48 C
116 06-02-2006 19:11:45 2.1 C 89 % 0.48 C
117 06-02-2006 19:21:45 2.1 C 89 % 0.48 C
118 06-02-2006 19:31:46 2.1 C 88 % 0.33 C
119 06-02-2006 19:41:46 2.2 C 89 % 0.58 C
120 06-02-2006 19:51:45 2.2 C 88 % 0.42 C
121 06-02-2006 20:01:46 2.2 C 88 % 0.42 C
122 06-02-2006 20:11:46 2.2 C 88 % 0.42 C
123 06-02-2006 20:21:45 2.2 C 88 % 0.42 C
124 06-02-2006 20:31:45 2.2 C 88 % 0.42 C
125 06-02-2006 20:41:45 2.2 C 89 % 0.58 C
Sensor: Nr:Datum:Temp:Feuchte:Taupunkt:
Aussen-T/F 126 06-02-2006 20:51:45 2.3 C 89 % 0.68 C
127 06-02-2006 21:01:45 2.3 C 89 % 0.68 C
128 06-02-2006 21:11:45 2.4 C 88 % 0.62 C
129 06-02-2006 21:21:46 2.5 C 88 % 0.72 C
130 06-02-2006 21:31:45 2.5 C 88 % 0.72 C
131 06-02-2006 21:41:45 2.5 C 88 % 0.72 C
132 06-02-2006 21:51:46 2.5 C 88 % 0.72 C
133 06-02-2006 22:01:45 2.5 C 88 % 0.72 C
134 06-02-2006 22:11:45 2.4 C 88 % 0.62 C
135 06-02-2006 22:21:45 2.4 C 88 % 0.62 C
136 06-02-2006 22:31:46 2.4 C 88 % 0.62 C
137 06-02-2006 22:41:46 2.3 C 88 % 0.52 C
138 06-02-2006 22:51:46 2.3 C 88 % 0.52 C
139 06-02-2006 23:01:46 2.2 C 88 % 0.42 C
140 06-02-2006 23:11:46 2.1 C 88 % 0.33 C
141 06-02-2006 23:21:46 2 C 88 % 0.23 C
142 06-02-2006 23:31:45 2 C 89 % 0.38 C
143 06-02-2006 23:41:45 1.9 C 89 % 0.28 C
144 06-02-2006 23:51:46 2 C 89 % 0.38 C
145 07-02-2006 00:01:46 2 C 89 % 0.38 C
146 07-02-2006 00:11:46 2 C 89 % 0.38 C
147 07-02-2006 00:21:46 2 C 90 % 0.54 C
148 07-02-2006 00:31:46 2 C 90 % 0.54 C
149 07-02-2006 00:41:46 2 C 90 % 0.54 C
150 07-02-2006 00:51:46 2 C 90 % 0.54 C
Sensor: Nr:Datum:Temp:Feuchte:Taupunkt:
Aussen-T/F 151 07-02-2006 01:01:46 1.8 C 91 % 0.49 C
152 07-02-2006 01:11:46 2 C 90 % 0.54 C
153 07-02-2006 01:21:46 1.9 C 90 % 0.44 C
154 07-02-2006 01:31:46 2 C 88 % 0.23 C
155 07-02-2006 01:41:46 2 C 87 % 0.07 C
156 07-02-2006 01:51:46 2.1 C 86 % 0.01 C
157 07-02-2006 02:01:46 2.2 C 84 % -0.22 C
158 07-02-2006 02:11:46 2.2 C 83 % -0.38 C
159 07-02-2006 02:21:46 2.2 C 83 % -0.38 C
160 07-02-2006 02:31:46 2.2 C 83 % -0.38 C
161 07-02-2006 02:41:46 2.1 C 83 % -0.48 C
162 07-02-2006 02:52:48 2.2 C 83 % -0.38 C
163 07-02-2006 03:02:48 2.2 C 83 % -0.38 C
164 07-02-2006 03:12:48 2.2 C 82 % -0.55 C
165 07-02-2006 03:22:48 2.4 C 81 % -0.52 C
166 07-02-2006 03:32:48 2.5 C 80 % -0.59 C
167 07-02-2006 03:42:48 2.5 C 80 % -0.59 C
168 07-02-2006 03:52:48 2.6 C 79 % -0.67 C
169 07-02-2006 04:02:48 2.7 C 79 % -0.57 C
170 07-02-2006 04:12:48 2.7 C 78 % -0.74 C
171 07-02-2006 04:22:48 2.7 C 78 % -0.74 C
172 07-02-2006 04:32:48 2.7 C 78 % -0.74 C
173 07-02-2006 04:42:48 2.7 C 78 % -0.74 C
174 07-02-2006 04:52:47 2.8 C 78 % -0.65 C
175 07-02-2006 05:02:48 2.8 C 78 % -0.65 C
Sensor: Nr:Datum:Temp:Feuchte:Taupunkt:
Aussen-T/F 176 07-02-2006 05:12:48 2.7 C 79 % -0.57 C
177 07-02-2006 05:22:48 2.7 C 79 % -0.57 C
178 07-02-2006 05:32:47 2.7 C 79 % -0.57 C
179 07-02-2006 05:42:47 2.6 C 80 % -0.49 C
180 07-02-2006 05:52:48 2.6 C 80 % -0.49 C
181 07-02-2006 06:02:48 2.6 C 80 % -0.49 C
182 07-02-2006 06:12:48 2.6 C 80 % -0.49 C
183 07-02-2006 06:22:48 2.6 C 80 % -0.49 C
184 07-02-2006 06:32:48 2.7 C 80 % -0.4 C
185 07-02-2006 06:42:49 2.7 C 80 % -0.4 C
186 07-02-2006 06:52:48 2.9 C 79 % -0.37 C
187 07-02-2006 07:02:48 3.1 C 78 % -0.35 C
188 07-02-2006 07:12:48 3 C 78 % -0.45 C
189 07-02-2006 07:22:48 2.9 C 79 % -0.37 C
190 07-02-2006 07:32:48 2.8 C 79 % -0.47 C
191 07-02-2006 07:42:48 2.9 C 80 % -0.2 C
192 07-02-2006 07:52:48 2.9 C 79 % -0.37 C
193 07-02-2006 08:02:48 3 C 79 % -0.28 C
194 07-02-2006 08:12:48 3 C 78 % -0.45 C
195 07-02-2006 08:22:48 3 C 78 % -0.45 C
196 07-02-2006 08:32:49 3.1 C 78 % -0.35 C
197 07-02-2006 08:42:49 3.2 C 78 % -0.26 C
198 07-02-2006 08:52:48 3.2 C 78 % -0.26 C
199 07-02-2006 09:02:48 3.2 C 77 % -0.43 C
200 07-02-2006 09:12:48 3.3 C 78 % -0.16 C
Sensor: Nr:Datum:Temp:Feuchte:Taupunkt:
Aussen-T/F 201 07-02-2006 09:22:48 3.2 C 78 % -0.26 C
202 07-02-2006 09:32:48 3.3 C 78 % -0.16 C
203 07-02-2006 09:42:48 3.4 C 78 % -0.06 C
204 07-02-2006 09:52:48 3.4 C 77 % -0.24 C
205 07-02-2006 10:02:48 3.4 C 77 % -0.24 C
206 07-02-2006 10:12:48 3.5 C 77 % -0.14 C
207 07-02-2006 10:22:48 3.6 C 77 % -0.05 C
208 07-02-2006 10:32:49 3.6 C 76 % -0.22 C
209 07-02-2006 10:42:49 3.7 C 76 % -0.13 C
210 07-02-2006 10:52:49 3.7 C 76 % -0.13 C
211 07-02-2006 11:02:48 3.7 C 77 % 0.05 C
212 07-02-2006 11:12:49 3.6 C 78 % 0.13 C
213 07-02-2006 11:22:48 3.5 C 80 % 0.38 C
214 07-02-2006 11:32:48 3.5 C 80 % 0.38 C
215 07-02-2006 11:42:48 3.5 C 80 % 0.38 C
216 07-02-2006 11:52:49 3.6 C 80 % 0.48 C
217 07-02-2006 12:02:48 3.6 C 79 % 0.31 C
218 07-02-2006 12:12:48 3.6 C 79 % 0.31 C
219 07-02-2006 12:22:48 3.7 C 79 % 0.4 C
220 07-02-2006 12:32:49 3.9 C 78 % 0.42 C
221 07-02-2006 12:42:49 3.9 C 78 % 0.42 C
222 07-02-2006 12:52:48 3.8 C 78 % 0.33 C
223 07-02-2006 13:02:49 3.8 C 79 % 0.5 C
224 07-02-2006 13:12:49 3.8 C 79 % 0.5 C
225 07-02-2006 13:22:49 3.9 C 80 % 0.77 C
Sensor: Nr:Datum:Temp:Feuchte:Taupunkt:
Aussen-T/F 226 07-02-2006 13:32:48 3.9 C 80 % 0.77 C
227 07-02-2006 13:42:48 4.1 C 79 % 0.79 C
228 07-02-2006 13:52:49 4.1 C 79 % 0.79 C
229 07-02-2006 14:02:48 4.1 C 79 % 0.79 C
230 07-02-2006 14:12:48 4.1 C 79 % 0.79 C
231 07-02-2006 14:22:48 4.1 C 79 % 0.79 C
232 07-02-2006 14:32:49 4.1 C 79 % 0.79 C
233 07-02-2006 14:42:49 4.2 C 78 % 0.71 C
234 07-02-2006 14:52:48 4.2 C 78 % 0.71 C
235 07-02-2006 15:02:49 4.3 C 78 % 0.81 C
236 07-02-2006 15:12:49 4.4 C 78 % 0.91 C
237 07-02-2006 15:22:49 4.4 C 78 % 0.91 C
238 07-02-2006 15:32:48 4.4 C 78 % 0.91 C
239 07-02-2006 15:42:48 4.4 C 78 % 0.91 C
240 07-02-2006 15:52:49 4.4 C 78 % 0.91 C
241 07-02-2006 16:02:48 4.5 C 79 % 1.18 C
242 07-02-2006 16:12:48 4.6 C 78 % 1.1 C
243 07-02-2006 16:22:49 4.6 C 78 % 1.1 C
244 07-02-2006 16:32:49 4.7 C 78 % 1.2 C
245 07-02-2006 16:42:49 4.8 C 78 % 1.3 C
246 07-02-2006 16:52:49 5 C 76 % 1.13 C
247 07-02-2006 17:02:49 5 C 75 % 0.95 C
248 07-02-2006 17:12:49 5 C 75 % 0.95 C
249 07-02-2006 17:22:49 5 C 75 % 0.95 C
250 07-02-2006 17:32:49 5.1 C 75 % 1.04 C
Sensor: Nr:Datum:Temp:Feuchte:Taupunkt:
Aussen-T/F 251 07-02-2006 17:42:49 5.1 C 75 % 1.04 C
252 07-02-2006 17:52:49 5.2 C 74 % 0.95 C
253 07-02-2006 18:02:49 5.1 C 75 % 1.04 C
254 07-02-2006 18:12:49 5 C 75 % 0.95 C
255 07-02-2006 18:22:49 5.1 C 75 % 1.04 C
256 07-02-2006 18:32:50 5.3 C 74 % 1.05 C
257 07-02-2006 18:42:50 5.3 C 73 % 0.86 C
258 07-02-2006 18:52:49 5.4 C 73 % 0.96 C
259 07-02-2006 19:02:50 5.4 C 72 % 0.77 C
260 07-02-2006 19:12:50 5.3 C 73 % 0.86 C
261 07-02-2006 19:22:50 5.4 C 73 % 0.96 C
262 07-02-2006 19:32:50 5.3 C 72 % 0.67 C
263 07-02-2006 19:42:50 5.4 C 72 % 0.77 C
264 07-02-2006 19:52:49 5.3 C 72 % 0.67 C
265 07-02-2006 20:02:50 5.3 C 73 % 0.86 C
266 07-02-2006 20:12:50 5.3 C 73 % 0.86 C
267 07-02-2006 20:22:50 5.2 C 73 % 0.77 C
268 07-02-2006 20:32:50 5.2 C 73 % 0.77 C
269 07-02-2006 20:42:50 5.3 C 73 % 0.86 C
270 07-02-2006 20:52:49 5.2 C 73 % 0.77 C
271 07-02-2006 21:02:50 5.2 C 73 % 0.77 C
272 07-02-2006 21:12:50 5.2 C 73 % 0.77 C
273 07-02-2006 21:22:50 5.1 C 73 % 0.67 C
274 07-02-2006 21:32:49 5.1 C 73 % 0.67 C
275 07-02-2006 21:42:49 5.1 C 73 % 0.67 C
Sensor: Nr:Datum:Temp:Feuchte:Taupunkt:
Aussen-T/F 276 07-02-2006 21:52:49 5.1 C 73 % 0.67 C
277 07-02-2006 22:02:50 5 C 73 % 0.57 C
278 07-02-2006 22:12:50 5.1 C 73 % 0.67 C
279 07-02-2006 22:22:50 5 C 73 % 0.57 C
280 07-02-2006 22:32:49 5 C 74 % 0.76 C
281 07-02-2006 22:42:49 4.9 C 75 % 0.85 C
282 07-02-2006 22:52:50 5 C 74 % 0.76 C
283 07-02-2006 23:02:49 5.1 C 74 % 0.86 C
284 07-02-2006 23:12:49 5.1 C 74 % 0.86 C
285 07-02-2006 23:22:49 5 C 74 % 0.76 C
286 07-02-2006 23:32:50 5 C 75 % 0.95 C
287 07-02-2006 23:42:50 4.9 C 77 % 1.22 C
288 07-02-2006 23:52:50 4.7 C 79 % 1.38 C
289 08-02-2006 00:02:50 4.4 C 81 % 1.43 C
290 08-02-2006 00:12:50 4.3 C 82 % 1.51 C
291 08-02-2006 00:22:50 4.2 C 83 % 1.58 C
292 08-02-2006 00:32:50 4.2 C 83 % 1.58 C
293 08-02-2006 00:42:50 4.1 C 84 % 1.65 C
294 08-02-2006 00:52:50 4.1 C 84 % 1.65 C
295 08-02-2006 01:02:50 4.1 C 84 % 1.65 C
296 08-02-2006 01:12:50 4.2 C 84 % 1.74 C
297 08-02-2006 01:22:50 4 C 83 % 1.38 C
298 08-02-2006 01:32:50 4 C 84 % 1.55 C
299 08-02-2006 01:42:50 4 C 84 % 1.55 C
300 08-02-2006 01:52:50 4.1 C 83 % 1.48 C
Sensor: Nr:Datum:Temp:Feuchte:Taupunkt:
Aussen-T/F 301 08-02-2006 02:02:50 4.1 C 83 % 1.48 C
302 08-02-2006 02:12:50 4.2 C 83 % 1.58 C
303 08-02-2006 02:22:50 4.2 C 82 % 1.41 C
304 08-02-2006 02:32:50 4.3 C 81 % 1.34 C
305 08-02-2006 02:42:50 4.2 C 82 % 1.41 C
306 08-02-2006 02:53:52 4.2 C 82 % 1.41 C
307 08-02-2006 03:03:52 4.2 C 81 % 1.24 C
308 08-02-2006 03:13:52 4.3 C 81 % 1.34 C
309 08-02-2006 03:23:52 4.2 C 81 % 1.24 C
310 08-02-2006 03:33:52 4.2 C 81 % 1.24 C
311 08-02-2006 03:43:52 4.3 C 80 % 1.16 C
312 08-02-2006 03:53:52 4.3 C 79 % 0.99 C
313 08-02-2006 04:03:51 4.3 C 79 % 0.99 C
314 08-02-2006 04:13:51 4.3 C 78 % 0.81 C
315 08-02-2006 04:23:51 4.4 C 78 % 0.91 C
316 08-02-2006 04:33:52 4.5 C 77 % 0.83 C
317 08-02-2006 04:43:52 4.5 C 76 % 0.65 C
318 08-02-2006 04:53:51 4.4 C 77 % 0.73 C
319 08-02-2006 05:03:51 4.6 C 76 % 0.74 C
320 08-02-2006 05:13:51 4.5 C 76 % 0.65 C
321 08-02-2006 05:23:52 4.6 C 75 % 0.56 C
322 08-02-2006 05:33:51 4.7 C 75 % 0.66 C
323 08-02-2006 05:43:51 4.7 C 75 % 0.66 C
324 08-02-2006 05:53:51 4.7 C 75 % 0.66 C
325 08-02-2006 06:03:52 4.7 C 75 % 0.66 C
Sensor: Nr:Datum:Temp:Feuchte:Taupunkt:
Aussen-T/F 326 08-02-2006 06:13:52 4.7 C 76 % 0.84 C
327 08-02-2006 06:23:52 4.6 C 76 % 0.74 C
328 08-02-2006 06:33:52 4.6 C 76 % 0.74 C
329 08-02-2006 06:43:52 4.6 C 76 % 0.74 C
330 08-02-2006 06:53:51 4.6 C 76 % 0.74 C
331 08-02-2006 07:03:52 4.7 C 75 % 0.66 C
332 08-02-2006 07:13:52 4.7 C 74 % 0.47 C
333 08-02-2006 07:23:52 4.7 C 74 % 0.47 C
334 08-02-2006 07:33:52 4.8 C 74 % 0.57 C
335 08-02-2006 07:43:52 4.8 C 73 % 0.38 C
336 08-02-2006 07:53:52 4.8 C 73 % 0.38 C
337 08-02-2006 08:03:52 4.8 C 72 % 0.19 C
338 08-02-2006 08:13:52 4.8 C 73 % 0.38 C
339 08-02-2006 08:23:52 4.5 C 75 % 0.46 C
340 08-02-2006 08:33:53 4.3 C 77 % 0.63 C
341 08-02-2006 08:43:53 4.2 C 78 % 0.71 C
342 08-02-2006 08:53:52 4.1 C 79 % 0.79 C
343 08-02-2006 09:03:53 4 C 79 % 0.7 C
344 08-02-2006 09:13:53 3.9 C 81 % 0.95 C
345 08-02-2006 09:23:52 3.8 C 80 % 0.68 C
346 08-02-2006 09:33:52 3.8 C 80 % 0.68 C
347 08-02-2006 09:43:52 3.8 C 80 % 0.68 C
348 08-02-2006 09:53:52 3.7 C 81 % 0.75 C
349 08-02-2006 10:03:52 3.8 C 81 % 0.85 C
350 08-02-2006 10:13:52 3.8 C 80 % 0.68 C
Sensor: Nr:Datum:Temp:Feuchte:Taupunkt:
Aussen-T/F 351 08-02-2006 10:23:52 3.8 C 80 % 0.68 C
352 08-02-2006 10:33:53 3.9 C 79 % 0.6 C
353 08-02-2006 10:43:53 4 C 78 % 0.52 C
354 08-02-2006 10:53:52 4.1 C 77 % 0.44 C
355 08-02-2006 11:03:53 4.2 C 75 % 0.17 C
356 08-02-2006 11:13:53 4.4 C 74 % 0.18 C
357 08-02-2006 11:23:52 4.8 C 73 % 0.38 C
358 08-02-2006 11:33:52 5 C 70 % 0 C
359 08-02-2006 11:43:52 5 C 69 % -0.2 C
360 08-02-2006 11:53:52 4.6 C 71 % -0.19 C
361 08-02-2006 12:03:52 4.2 C 75 % 0.17 C
362 08-02-2006 12:13:52 3.8 C 79 % 0.5 C
363 08-02-2006 12:23:53 3.7 C 82 % 0.92 C
364 08-02-2006 12:33:53 3.7 C 83 % 1.09 C
365 08-02-2006 12:43:53 3.6 C 84 % 1.16 C
366 08-02-2006 12:53:53 3.4 C 84 % 0.96 C
367 08-02-2006 13:03:53 3.3 C 84 % 0.86 C
368 08-02-2006 13:13:53 3.2 C 85 % 0.93 C
369 08-02-2006 13:23:52 3.1 C 85 % 0.83 C
370 08-02-2006 13:33:52 3 C 86 % 0.89 C
371 08-02-2006 13:43:52 3 C 86 % 0.89 C
372 08-02-2006 13:53:52 3.2 C 85 % 0.93 C
373 08-02-2006 14:03:53 3.2 C 85 % 0.93 C
374 08-02-2006 14:13:53 3.3 C 85 % 1.03 C
375 08-02-2006 14:23:53 3.3 C 85 % 1.03 C
Sensor: Nr:Datum:Temp:Feuchte:Taupunkt:
Aussen-T/F 376 08-02-2006 14:33:53 3.4 C 84 % 0.96 C
377 08-02-2006 14:43:53 3.7 C 83 % 1.09 C
378 08-02-2006 14:53:53 4.2 C 79 % 0.89 C
379 08-02-2006 15:03:53 4.2 C 77 % 0.54 C
380 08-02-2006 15:13:53 4.1 C 77 % 0.44 C
381 08-02-2006 15:23:52 4.1 C 78 % 0.62 C
382 08-02-2006 15:33:53 4.2 C 77 % 0.54 C
383 08-02-2006 15:43:53 4.4 C 77 % 0.73 C
384 08-02-2006 15:53:53 4.6 C 76 % 0.74 C
385 08-02-2006 16:03:53 4.9 C 74 % 0.67 C
386 08-02-2006 16:13:53 5 C 71 % 0.19 C
387 08-02-2006 16:23:53 5.2 C 71 % 0.38 C
388 08-02-2006 16:33:53 5.4 C 66 % -0.43 C
389 08-02-2006 16:43:53 5.1 C 64 % -1.13 C
390 08-02-2006 16:53:53 4.8 C 66 % -1 C
391 08-02-2006 17:03:53 4.1 C 69 % -1.06 C
392 08-02-2006 17:13:54 3.4 C 75 % -0.6 C
393 08-02-2006 17:23:53 2.7 C 81 % -0.23 C
394 08-02-2006 17:33:53 2.5 C 82 % -0.25 C
395 08-02-2006 17:43:54 2.5 C 84 % 0.08 C
396 08-02-2006 17:53:54 2.4 C 85 % 0.14 C
397 08-02-2006 18:03:53 2.3 C 86 % 0.21 C
398 08-02-2006 18:13:53 2.3 C 86 % 0.21 C
399 08-02-2006 18:23:53 2.2 C 87 % 0.27 C
400 08-02-2006 18:33:53 2.4 C 87 % 0.46 C
Sensor: Nr:Datum:Temp:Feuchte:Taupunkt:
Aussen-T/F 401 08-02-2006 18:43:53 2.5 C 85 % 0.24 C
402 08-02-2006 18:53:53 2.5 C 85 % 0.24 C
403 08-02-2006 19:03:54 2.6 C 84 % 0.18 C
404 08-02-2006 19:13:54 2.6 C 83 % 0.01 C
405 08-02-2006 19:23:53 2.5 C 83 % -0.09 C
406 08-02-2006 19:33:53 2.4 C 83 % -0.18 C
407 08-02-2006 19:43:53 2.4 C 83 % -0.18 C
408 08-02-2006 19:53:54 2.4 C 83 % -0.18 C
409 08-02-2006 20:03:53 2.4 C 83 % -0.18 C
410 08-02-2006 20:13:54 2.5 C 83 % -0.09 C
411 08-02-2006 20:23:53 2.2 C 83 % -0.38 C
412 08-02-2006 20:33:53 2.1 C 84 % -0.31 C
413 08-02-2006 20:43:53 2.1 C 84 % -0.31 C
414 08-02-2006 20:53:54 2 C 84 % -0.41 C
415 08-02-2006 21:03:53 2.1 C 84 % -0.31 C
416 08-02-2006 21:13:53 2.2 C 84 % -0.22 C
417 08-02-2006 21:23:53 2.3 C 83 % -0.28 C
418 08-02-2006 21:33:53 2.2 C 83 % -0.38 C
419 08-02-2006 21:43:53 2.3 C 82 % -0.45 C
420 08-02-2006 21:53:54 2.4 C 80 % -0.69 C
421 08-02-2006 22:03:54 2.5 C 79 % -0.76 C
422 08-02-2006 22:13:54 2.4 C 80 % -0.69 C
423 08-02-2006 22:23:53 2.5 C 80 % -0.59 C
424 08-02-2006 22:33:53 2.3 C 80 % -0.79 C
425 08-02-2006 22:43:53 2.3 C 80 % -0.79 C
Sensor: Nr:Datum:Temp:Feuchte:Taupunkt:
Aussen-T/F 426 08-02-2006 22:53:54 2.4 C 80 % -0.69 C
427 08-02-2006 23:03:53 2.5 C 78 % -0.94 C
428 08-02-2006 23:13:53 2.4 C 78 % -1.03 C
429 08-02-2006 23:23:53 2.4 C 76 % -1.39 C
430 08-02-2006 23:33:54 2.5 C 75 % -1.47 C
431 08-02-2006 23:43:54 2.5 C 75 % -1.47 C
432 08-02-2006 23:53:53 2.6 C 75 % -1.37 C
433 09-02-2006 00:03:54 2.5 C 75 % -1.47 C
434 09-02-2006 00:13:54 2.3 C 77 % -1.31 C
435 09-02-2006 00:23:54 2.1 C 80 % -0.98 C
436 09-02-2006 00:33:54 2 C 81 % -0.91 C
437 09-02-2006 00:43:54 2 C 82 % -0.74 C
438 09-02-2006 00:53:54 2.1 C 82 % -0.64 C
439 09-02-2006 01:03:54 2 C 83 % -0.58 C
440 09-02-2006 01:13:54 2 C 84 % -0.41 C
441 09-02-2006 01:23:54 1.8 C 84 % -0.61 C
442 09-02-2006 01:33:54 1.1 C 85 % -1.13 C
443 09-02-2006 01:43:54 1 C 87 % -0.91 C
444 09-02-2006 01:53:54 0.8 C 88 % -0.96 C
445 09-02-2006 02:03:54 0.8 C 89 % -0.8 C
446 09-02-2006 02:13:54 0.8 C 89 % -0.8 C
447 09-02-2006 02:23:54 1 C 89 % -0.6 C
448 09-02-2006 02:33:54 1.3 C 90 % -0.15 C
449 09-02-2006 02:43:54 1.5 C 90 % 0.04 C
450 09-02-2006 02:54:55 1.6 C 88 % -0.17 C
Sensor: Nr:Datum:Temp:Feuchte:Taupunkt:
Aussen-T/F 451 09-02-2006 03:04:55 1.6 C 87 % -0.32 C
452 09-02-2006 03:14:56 1.8 C 86 % -0.29 C
453 09-02-2006 03:24:56 1.8 C 85 % -0.45 C
454 09-02-2006 03:34:56 1.9 C 84 % -0.51 C
455 09-02-2006 03:44:56 1.8 C 83 % -0.77 C
456 09-02-2006 03:54:56 1.8 C 83 % -0.77 C
457 09-02-2006 04:04:56 1.8 C 83 % -0.77 C
458 09-02-2006 04:14:56 1.9 C 82 % -0.84 C
459 09-02-2006 04:24:56 1.8 C 82 % -0.94 C
460 09-02-2006 04:34:56 1.6 C 83 % -0.97 C
461 09-02-2006 04:44:56 1.5 C 84 % -0.9 C
462 09-02-2006 04:54:56 1.6 C 84 % -0.8 C
463 09-02-2006 05:04:56 1.5 C 84 % -0.9 C
464 09-02-2006 05:14:56 1.5 C 84 % -0.9 C
465 09-02-2006 05:24:56 1.5 C 84 % -0.9 C
466 09-02-2006 05:34:56 1.4 C 85 % -0.84 C
467 09-02-2006 05:44:56 1.5 C 86 % -0.58 C
468 09-02-2006 05:54:56 1.5 C 85 % -0.74 C
469 09-02-2006 06:04:56 1.5 C 85 % -0.74 C
470 09-02-2006 06:14:56 1.5 C 85 % -0.74 C
471 09-02-2006 06:24:56 1.4 C 85 % -0.84 C
472 09-02-2006 06:34:55 0.9 C 87 % -1.01 C
473 09-02-2006 06:44:55 0.8 C 88 % -0.96 C
474 09-02-2006 06:54:56 0.8 C 89 % -0.8 C
475 09-02-2006 07:04:56 0.8 C 90 % -0.65 C
Sensor: Nr:Datum:Temp:Feuchte:Taupunkt:
Aussen-T/F 476 09-02-2006 07:14:56 0.9 C 90 % -0.55 C
477 09-02-2006 07:24:56 1 C 90 % -0.45 C
478 09-02-2006 07:34:56 1.1 C 90 % -0.35 C
479 09-02-2006 07:44:56 1.1 C 89 % -0.51 C
480 09-02-2006 07:54:56 1.2 C 88 % -0.56 C
481 09-02-2006 08:04:56 1.3 C 86 % -0.78 C
482 09-02-2006 08:14:56 1.2 C 83 % -1.36 C
483 09-02-2006 08:24:56 0.8 C 85 % -1.43 C
484 09-02-2006 08:34:56 0.5 C 87 % -1.41 C
485 09-02-2006 08:44:57 0.7 C 88 % -1.05 C
486 09-02-2006 08:54:56 0.9 C 88 % -0.86 C
487 09-02-2006 09:04:56 1 C 88 % -0.76 C
488 09-02-2006 09:14:56 1.1 C 88 % -0.66 C
489 09-02-2006 09:24:56 1.1 C 87 % -0.82 C
490 09-02-2006 09:34:57 1.1 C 87 % -0.82 C
491 09-02-2006 09:44:57 1.2 C 88 % -0.56 C
492 09-02-2006 09:54:56 1.2 C 87 % -0.72 C
493 09-02-2006 10:04:56 1.2 C 86 % -0.88 C
494 09-02-2006 10:14:56 1.3 C 85 % -0.94 C
495 09-02-2006 10:24:56 1.4 C 84 % -1 C
496 09-02-2006 10:34:56 1.4 C 83 % -1.16 C
497 09-02-2006 10:44:56 1.5 C 83 % -1.06 C
498 09-02-2006 10:54:57 1.4 C 83 % -1.16 C
499 09-02-2006 11:04:56 1.5 C 82 % -1.23 C
500 09-02-2006 11:14:57 1.1 C 81 % -1.79 C
Sensor: Nr:Datum:Temp:Feuchte:Taupunkt:
Aussen-T/F 501 09-02-2006 11:24:56 0.7 C 80 % -2.34 C
502 09-02-2006 11:34:56 0.7 C 78 % -2.69 C
503 09-02-2006 11:44:56 0.8 C 76 % -2.94 C
504 09-02-2006 11:54:56 1.1 C 74 % -3 C
505 09-02-2006 12:04:57 1.3 C 71 % -3.36 C
506 09-02-2006 12:14:57 1.8 C 68 % -3.46 C
507 09-02-2006 12:24:57 1.9 C 66 % -3.76 C
508 09-02-2006 12:34:56 2.1 C 63 % -4.19 C
509 09-02-2006 12:44:56 2.2 C 64 % -3.89 C
510 09-02-2006 12:54:57 2.3 C 61 % -4.43 C
511 09-02-2006 13:04:56 2.4 C 56 % -5.46 C
512 09-02-2006 13:14:56 2.6 C 55 % -5.51 C
513 09-02-2006 13:24:56 2.6 C 54 % -5.75 C
514 09-02-2006 13:34:57 2.9 C 55 % -5.23 C
515 09-02-2006 13:44:57 2.8 C 54 % -5.57 C
516 09-02-2006 13:54:56 2.9 C 57 % -4.76 C
517 09-02-2006 14:04:57 2.6 C 59 % -4.59 C
518 09-02-2006 14:14:57 3.4 C 56 % -4.53 C
519 09-02-2006 14:24:57 4 C 53 % -4.7 C
520 09-02-2006 14:34:56 3.5 C 50 % -5.92 C
521 09-02-2006 14:44:56 3.6 C 52 % -5.32 C
522 09-02-2006 14:54:57 3.3 C 53 % -5.35 C
523 09-02-2006 15:04:56 3.1 C 53 % -5.53 C
524 09-02-2006 15:14:56 3.4 C 54 % -5.01 C
525 09-02-2006 15:24:57 3.4 C 53 % -5.25 C
Sensor: Nr:Datum:Temp:Feuchte:Taupunkt:
Aussen-T/F 526 09-02-2006 15:34:57 3.5 C 53 % -5.16 C
527 09-02-2006 15:44:57 3.5 C 51 % -5.66 C
528 09-02-2006 15:54:57 3.5 C 50 % -5.92 C
529 09-02-2006 16:04:57 3.6 C 51 % -5.57 C
530 09-02-2006 16:14:57 4.1 C 49 % -5.63 C
531 09-02-2006 16:24:57 4 C 49 % -5.73 C
532 09-02-2006 16:34:57 3.7 C 51 % -5.48 C
533 09-02-2006 16:44:57 3.8 C 51 % -5.39 C
534 09-02-2006 16:54:57 3.7 C 53 % -4.97 C
535 09-02-2006 17:04:57 3.6 C 54 % -4.82 C
536 09-02-2006 17:14:57 3.5 C 55 % -4.67 C
537 09-02-2006 17:24:57 3.5 C 55 % -4.67 C
538 09-02-2006 17:34:57 3.4 C 55 % -4.77 C
539 09-02-2006 17:44:57 3.5 C 56 % -4.43 C
540 09-02-2006 17:54:57 3.4 C 57 % -4.29 C
541 09-02-2006 18:04:57 3.2 C 59 % -4.02 C
542 09-02-2006 18:14:57 3.3 C 59 % -3.93 C
543 09-02-2006 18:24:57 3.4 C 58 % -4.06 C
544 09-02-2006 18:34:57 3.5 C 57 % -4.2 C
545 09-02-2006 18:44:57 3.5 C 57 % -4.2 C
546 09-02-2006 18:54:57 3.5 C 57 % -4.2 C
547 09-02-2006 19:04:57 3.5 C 57 % -4.2 C
548 09-02-2006 19:14:57 3.4 C 57 % -4.29 C
549 09-02-2006 19:24:57 3.5 C 57 % -4.2 C
550 09-02-2006 19:34:57 3 C 63 % -3.34 C
Sensor: Nr:Datum:Temp:Feuchte:Taupunkt:
Aussen-T/F 551 09-02-2006 19:44:57 3 C 62 % -3.55 C
552 09-02-2006 19:54:57 3.2 C 60 % -3.8 C
553 09-02-2006 20:04:58 3.3 C 58 % -4.16 C
554 09-02-2006 20:14:58 3.4 C 57 % -4.29 C
555 09-02-2006 20:24:57 3.5 C 57 % -4.2 C
556 09-02-2006 20:34:57 3.4 C 58 % -4.06 C
557 09-02-2006 20:44:57 3.4 C 57 % -4.29 C
558 09-02-2006 20:54:57 3.5 C 57 % -4.2 C
559 09-02-2006 21:04:57 3.7 C 56 % -4.25 C
560 09-02-2006 21:14:57 3.6 C 56 % -4.34 C
561 09-02-2006 21:24:57 3.8 C 55 % -4.39 C
562 09-02-2006 21:34:57 3.7 C 56 % -4.25 C
563 09-02-2006 21:44:57 3.7 C 56 % -4.25 C
564 09-02-2006 21:54:57 3.6 C 57 % -4.11 C
565 09-02-2006 22:04:57 3.6 C 57 % -4.11 C
566 09-02-2006 22:14:57 3.5 C 57 % -4.2 C
567 09-02-2006 22:24:57 3.6 C 57 % -4.11 C
568 09-02-2006 22:34:57 3.5 C 57 % -4.2 C
569 09-02-2006 22:44:57 3.4 C 58 % -4.06 C
570 09-02-2006 22:54:58 3.4 C 59 % -3.84 C
571 09-02-2006 23:04:58 3.3 C 60 % -3.71 C
572 09-02-2006 23:14:58 3.2 C 61 % -3.58 C
573 09-02-2006 23:24:57 2.9 C 65 % -3.02 C
574 09-02-2006 23:34:57 2.7 C 67 % -2.8 C
575 09-02-2006 23:44:57 2.6 C 70 % -2.31 C
Sensor: Nr:Datum:Temp:Feuchte:Taupunkt:
Aussen-T/F 576 09-02-2006 23:54:57 2.4 C 71 % -2.31 C
577 10-02-2006 00:04:58 2.6 C 68 % -2.7 C
578 10-02-2006 00:14:58 2.7 C 65 % -3.21 C
579 10-02-2006 00:24:58 2.8 C 65 % -3.11 C
580 10-02-2006 00:34:57 2.9 C 63 % -3.43 C
581 10-02-2006 00:44:57 2.9 C 63 % -3.43 C
582 10-02-2006 00:54:58 3 C 62 % -3.55 C
583 10-02-2006 01:04:58 3.1 C 62 % -3.46 C
584 10-02-2006 01:14:58 3 C 62 % -3.55 C
585 10-02-2006 01:24:58 3 C 62 % -3.55 C
586 10-02-2006 01:34:58 2.8 C 65 % -3.11 C
587 10-02-2006 01:44:58 2.7 C 66 % -3 C
588 10-02-2006 01:54:58 2.9 C 64 % -3.22 C
589 10-02-2006 02:04:58 2.9 C 64 % -3.22 C
590 10-02-2006 02:14:58 2.9 C 64 % -3.22 C
591 10-02-2006 02:24:58 2.7 C 65 % -3.21 C
592 10-02-2006 02:34:58 2.7 C 66 % -3 C
593 10-02-2006 02:44:58 2.5 C 69 % -2.6 C
594 10-02-2006 02:55:00 2.4 C 70 % -2.5 C
595 10-02-2006 03:05:00 2.3 C 71 % -2.4 C
596 10-02-2006 03:15:59 2.3 C 71 % -2.4 C
597 10-02-2006 03:25:59 2.1 C 73 % -2.22 C
598 10-02-2006 03:35:00 2.2 C 73 % -2.13 C
599 10-02-2006 03:45:00 2.2 C 73 % -2.13 C
600 10-02-2006 03:55:00 2.2 C 73 % -2.13 C
Sensor: Nr:Datum:Temp:Feuchte:Taupunkt:
Aussen-T/F 601 10-02-2006 04:15:00 2.3 C 73 % -2.03 C
602 10-02-2006 04:25:00 2.3 C 72 % -2.22 C
603 10-02-2006 04:35:00 2.3 C 72 % -2.22 C
604 10-02-2006 04:45:00 2.6 C 70 % -2.31 C
605 10-02-2006 04:55:00 2.6 C 70 % -2.31 C
606 10-02-2006 05:05:00 2.7 C 69 % -2.4 C
607 10-02-2006 05:15:00 2.7 C 69 % -2.4 C
608 10-02-2006 05:25:00 2.7 C 69 % -2.4 C
609 10-02-2006 05:35:00 2.6 C 70 % -2.31 C
610 10-02-2006 05:45:00 2.6 C 70 % -2.31 C
611 10-02-2006 05:55:00 2.6 C 70 % -2.31 C
612 10-02-2006 06:15:00 2.7 C 70 % -2.21 C
613 10-02-2006 06:15:59 2.6 C 70 % -2.31 C
614 10-02-2006 06:24:59 2.4 C 72 % -2.12 C
615 10-02-2006 06:35:00 2.4 C 72 % -2.12 C
616 10-02-2006 06:45:00 2.5 C 72 % -2.02 C
617 10-02-2006 06:55:59 2.5 C 72 % -2.02 C
618 10-02-2006 07:05:00 2.5 C 71 % -2.21 C
619 10-02-2006 07:15:00 2.5 C 71 % -2.21 C
620 10-02-2006 07:25:00 2.4 C 70 % -2.5 C
621 10-02-2006 07:44:59 2.4 C 71 % -2.31 C
622 10-02-2006 07:45:00 2.3 C 72 % -2.22 C
623 10-02-2006 07:55:00 2.2 C 72 % -2.31 C
624 10-02-2006 08:05:00 2.3 C 71 % -2.4 C
625 10-02-2006 08:15:00 2.4 C 71 % -2.31 C
Sensor: Nr:Datum:Temp:Feuchte:Taupunkt:
Aussen-T/F 626 10-02-2006 08:25:00 2.4 C 70 % -2.5 C
627 10-02-2006 08:35:00 2.5 C 71 % -2.21 C
628 10-02-2006 08:45:00 2.4 C 72 % -2.12 C
629 10-02-2006 08:55:00 2.3 C 73 % -2.03 C
630 10-02-2006 09:05:00 2.2 C 73 % -2.13 C
631 10-02-2006 09:15:00 2.2 C 74 % -1.94 C
632 10-02-2006 09:25:00 2.1 C 75 % -1.86 C
633 10-02-2006 09:35:00 2.1 C 75 % -1.86 C
634 10-02-2006 09:45:00 2 C 76 % -1.77 C
635 10-02-2006 09:55:00 2.1 C 76 % -1.68 C
636 10-02-2006 10:05:00 2.1 C 76 % -1.68 C
637 10-02-2006 10:15:00 2.2 C 76 % -1.58 C
638 10-02-2006 10:25:00 2.3 C 76 % -1.48 C
639 10-02-2006 10:35:00 2.3 C 76 % -1.48 C
640 10-02-2006 10:45:00 2.3 C 76 % -1.48 C
641 10-02-2006 10:55:00 2.3 C 75 % -1.66 C
642 10-02-2006 11:05:00 2.2 C 76 % -1.58 C
643 10-02-2006 11:15:00 2.3 C 76 % -1.48 C
644 10-02-2006 11:25:01 2.3 C 76 % -1.48 C
645 10-02-2006 11:35:00 2.4 C 75 % -1.57 C
646 10-02-2006 11:45:01 2.4 C 75 % -1.57 C
647 10-02-2006 11:55:01 2.4 C 75 % -1.57 C
648 10-02-2006 12:05:00 2.4 C 76 % -1.39 C
649 10-02-2006 12:15:01 2.5 C 75 % -1.47 C
650 10-02-2006 12:25:00 2.5 C 74 % -1.65 C
Sensor: Nr:Datum:Temp:Feuchte:Taupunkt:
Aussen-T/F 651 10-02-2006 12:35:00 2.5 C 74 % -1.65 C
652 10-02-2006 12:45:00 2.5 C 75 % -1.47 C
653 10-02-2006 12:55:00 2.4 C 75 % -1.57 C
654 10-02-2006 13:05:00 2.5 C 76 % -1.29 C
655 10-02-2006 13:15:00 2.4 C 76 % -1.39 C
656 10-02-2006 13:25:01 2.4 C 75 % -1.57 C
657 10-02-2006 13:35:01 2.5 C 75 % -1.47 C
658 10-02-2006 13:45:01 2.6 C 74 % -1.56 C
659 10-02-2006 13:55:02 2.5 C 74 % -1.65 C
660 10-02-2006 14:05:02 2.6 C 74 % -1.56 C
661 10-02-2006 14:15:02 2.6 C 74 % -1.56 C
662 10-02-2006 14:25:02 2.6 C 73 % -1.74 C
663 10-02-2006 14:35:02 2.6 C 73 % -1.74 C
664 10-02-2006 14:45:01 2.5 C 73 % -1.84 C
665 10-02-2006 14:55:01 2.4 C 74 % -1.75 C
666 10-02-2006 15:05:01 2.3 C 75 % -1.66 C
667 10-02-2006 15:15:02 2.2 C 75 % -1.76 C
668 10-02-2006 15:25:02 2.2 C 76 % -1.58 C
669 10-02-2006 15:35:02 2.1 C 77 % -1.5 C
670 10-02-2006 15:45:02 2.1 C 78 % -1.33 C
671 10-02-2006 15:55:02 2 C 79 % -1.25 C
672 10-02-2006 16:05:02 2 C 80 % -1.08 C
673 10-02-2006 16:15:02 1.9 C 81 % -1.01 C
674 10-02-2006 16:25:02 1.8 C 82 % -0.94 C
675 10-02-2006 16:35:02 1.8 C 82 % -0.94 C
Sensor: Nr:Datum:Temp:Feuchte:Taupunkt:
Aussen-T/F 676 10-02-2006 16:45:02 1.8 C 82 % -0.94 C
677 10-02-2006 16:55:02 1.8 C 82 % -0.94 C
678 10-02-2006 17:05:03 1.8 C 82 % -0.94 C
679 10-02-2006 17:15:02 1.8 C 82 % -0.94 C
680 10-02-2006 17:25:02 1.9 C 82 % -0.84 C
681 10-02-2006 17:35:02 1.6 C 83 % -0.97 C
682 10-02-2006 17:45:02 1.6 C 83 % -0.97 C
683 10-02-2006 17:55:03 1.6 C 83 % -0.97 C
684 10-02-2006 18:05:02 1.6 C 84 % -0.8 C
685 10-02-2006 18:15:02 1.6 C 84 % -0.8 C
686 10-02-2006 18:25:02 1.6 C 84 % -0.8 C
687 10-02-2006 18:35:02 1.6 C 84 % -0.8 C
688 10-02-2006 18:45:02 1.6 C 84 % -0.8 C
689 10-02-2006 18:55:02 1.5 C 84 % -0.9 C
690 10-02-2006 19:05:02 1.5 C 84 % -0.9 C
691 10-02-2006 19:15:02 1.5 C 85 % -0.74 C
692 10-02-2006 19:25:02 2 C 84 % -0.41 C
693 10-02-2006 19:35:02 1.6 C 85 % -0.64 C
694 10-02-2006 19:45:02 1.9 C 85 % -0.35 C
695 10-02-2006 19:55:02 1.9 C 85 % -0.35 C
696 10-02-2006 20:05:03 1.7 C 84 % -0.71 C
697 10-02-2006 20:15:02 1.7 C 84 % -0.71 C
698 10-02-2006 20:25:02 1.7 C 83 % -0.87 C
699 10-02-2006 20:35:02 1.7 C 83 % -0.87 C
700 10-02-2006 20:45:02 1.7 C 83 % -0.87 C
Sensor: Nr:Datum:Temp:Feuchte:Taupunkt:
Aussen-T/F 701 10-02-2006 20:55:02 1.6 C 83 % -0.97 C
702 10-02-2006 21:05:02 1.5 C 83 % -1.06 C
703 10-02-2006 21:15:02 1.4 C 83 % -1.16 C
704 10-02-2006 21:25:02 1.4 C 83 % -1.16 C
705 10-02-2006 21:35:03 1.3 C 83 % -1.26 C
706 10-02-2006 21:45:02 1.3 C 83 % -1.26 C
707 10-02-2006 21:55:02 1.3 C 83 % -1.26 C
708 10-02-2006 22:05:03 1.3 C 83 % -1.26 C
709 10-02-2006 22:15:03 1.2 C 83 % -1.36 C
710 10-02-2006 22:25:03 1 C 83 % -1.55 C
711 10-02-2006 22:35:02 0.8 C 84 % -1.59 C
712 10-02-2006 22:45:02 0.7 C 84 % -1.69 C
713 10-02-2006 22:55:02 0.7 C 85 % -1.53 C
714 10-02-2006 23:05:02 0.8 C 85 % -1.43 C
715 10-02-2006 23:15:03 0.7 C 85 % -1.53 C
716 10-02-2006 23:25:03 0.5 C 85 % -1.72 C
717 10-02-2006 23:35:02 0.3 C 84 % -2.08 C
718 10-02-2006 23:45:03 0.3 C 85 % -1.92 C
719 10-02-2006 23:55:03 0.2 C 86 % -1.86 C
720 11-02-2006 00:05:03 -0.1 C 85 % -2.31 C
721 11-02-2006 00:15:03 -0.3 C 85 % -2.51 C
722 11-02-2006 00:25:03 -0.5 C 85 % -2.71 C
723 11-02-2006 00:35:03 -0.6 C 85 % -2.8 C
724 11-02-2006 00:45:03 -0.7 C 86 % -2.74 C
725 11-02-2006 00:55:04 -0.9 C 85 % -3.1 C
Sensor: Nr:Datum:Temp:Feuchte:Taupunkt:
Aussen-T/F 726 11-02-2006 01:05:03 -1.1 C 86 % -3.14 C
727 11-02-2006 01:15:03 -1.2 C 86 % -3.24 C
728 11-02-2006 01:25:03 -1.4 C 86 % -3.43 C
729 11-02-2006 01:35:03 -1.4 C 86 % -3.43 C
730 11-02-2006 01:45:03 -1.5 C 86 % -3.53 C
731 11-02-2006 01:55:03 -1.5 C 86 % -3.53 C
732 11-02-2006 02:05:03 -1.4 C 87 % -3.28 C
733 11-02-2006 02:15:03 -1.4 C 87 % -3.28 C
734 11-02-2006 02:25:04 -1.6 C 87 % -3.48 C
735 11-02-2006 02:35:03 -1.6 C 87 % -3.48 C
736 11-02-2006 02:46:04 -1.6 C 88 % -3.32 C
737 11-02-2006 02:56:04 -1.5 C 88 % -3.22 C
738 11-02-2006 03:06:04 -1.6 C 88 % -3.32 C
739 11-02-2006 03:16:04 -1.8 C 88 % -3.52 C
740 11-02-2006 03:26:05 -2 C 88 % -3.72 C
741 11-02-2006 03:36:04 -2 C 88 % -3.72 C
742 11-02-2006 03:46:04 -1.7 C 89 % -3.27 C
743 11-02-2006 03:56:04 -1.6 C 89 % -3.17 C
744 11-02-2006 04:06:04 -1.4 C 90 % -2.82 C
745 11-02-2006 04:16:04 -1.4 C 90 % -2.82 C
746 11-02-2006 04:26:04 -1.3 C 90 % -2.73 C
747 11-02-2006 04:36:04 -1.3 C 90 % -2.73 C
748 11-02-2006 04:46:04 -1.3 C 90 % -2.73 C
749 11-02-2006 04:56:04 -1.3 C 90 % -2.73 C
750 11-02-2006 05:06:05 -1.4 C 90 % -2.82 C
Sensor: Nr:Datum:Temp:Feuchte:Taupunkt:
Aussen-T/F 751 11-02-2006 05:16:05 -1.3 C 90 % -2.73 C
752 11-02-2006 05:26:05 -1.2 C 91 % -2.48 C
753 11-02-2006 05:36:04 -1.2 C 91 % -2.48 C
754 11-02-2006 05:46:04 -1.1 C 91 % -2.38 C
755 11-02-2006 05:56:04 -1 C 91 % -2.28 C
756 11-02-2006 06:06:05 -1 C 91 % -2.28 C
757 11-02-2006 06:16:04 -1.1 C 91 % -2.38 C
758 11-02-2006 06:26:04 -1.1 C 91 % -2.38 C
759 11-02-2006 06:36:04 -1 C 91 % -2.28 C
760 11-02-2006 06:46:05 -0.9 C 91 % -2.18 C
761 11-02-2006 06:56:05 -0.9 C 91 % -2.18 C
762 11-02-2006 07:06:04 -0.9 C 91 % -2.18 C
763 11-02-2006 07:16:04 -0.8 C 91 % -2.08 C
764 11-02-2006 07:26:04 -0.8 C 91 % -2.08 C
765 11-02-2006 07:36:04 -0.7 C 91 % -1.98 C
766 11-02-2006 07:46:04 -0.6 C 91 % -1.88 C
767 11-02-2006 07:56:04 -0.6 C 92 % -1.74 C
768 11-02-2006 08:06:04 -0.6 C 92 % -1.74 C
769 11-02-2006 08:16:05 -0.5 C 92 % -1.64 C
770 11-02-2006 08:26:05 -0.4 C 92 % -1.54 C
771 11-02-2006 08:36:05 -0.3 C 92 % -1.44 C
772 11-02-2006 08:46:04 -0.2 C 92 % -1.34 C
773 11-02-2006 08:56:04 -0.1 C 92 % -1.24 C
774 11-02-2006 09:06:04 0 C 92 % -1.14 C
775 11-02-2006 09:16:05 0.1 C 92 % -1.04 C
Sensor: Nr:Datum:Temp:Feuchte:Taupunkt:
Aussen-T/F 776 11-02-2006 09:26:05 0.2 C 92 % -0.94 C
777 11-02-2006 09:36:05 0.3 C 91 % -0.99 C
778 11-02-2006 09:46:04 0.4 C 90 % -1.04 C
779 11-02-2006 09:56:04 0.6 C 89 % -1 C
780 11-02-2006 10:06:04 0.8 C 87 % -1.11 C
781 11-02-2006 10:16:04 1 C 85 % -1.23 C
782 11-02-2006 10:26:04 0.9 C 83 % -1.65 C
783 11-02-2006 10:36:05 0.8 C 83 % -1.75 C
784 11-02-2006 10:46:05 1.1 C 83 % -1.46 C
785 11-02-2006 10:56:05 1.3 C 82 % -1.43 C
786 11-02-2006 11:06:04 1.2 C 81 % -1.69 C
787 11-02-2006 11:16:05 1.5 C 81 % -1.4 C
788 11-02-2006 11:26:05 1.8 C 81 % -1.1 C
789 11-02-2006 11:36:05 2 C 78 % -1.42 C
790 11-02-2006 11:46:05 2.3 C 76 % -1.48 C
791 11-02-2006 11:56:05 2.6 C 76 % -1.19 C
792 11-02-2006 12:06:05 2.6 C 75 % -1.37 C
793 11-02-2006 12:16:05 2.6 C 75 % -1.37 C
794 11-02-2006 12:26:05 2.6 C 74 % -1.56 C
795 11-02-2006 12:36:06 3 C 73 % -1.35 C
796 11-02-2006 12:46:06 3.1 C 72 % -1.45 C
797 11-02-2006 12:56:06 3.1 C 70 % -1.83 C
798 11-02-2006 13:06:06 3.2 C 68 % -2.12 C
799 11-02-2006 13:16:05 3.5 C 67 % -2.04 C
800 11-02-2006 13:26:05 3.8 C 66 % -1.95 C
Sensor: Nr:Datum:Temp:Feuchte:Taupunkt:
Aussen-T/F 801 11-02-2006 13:36:05 4.2 C 62 % -2.42 C
802 11-02-2006 13:46:05 4.4 C 61 % -2.45 C
803 11-02-2006 13:56:05 4.9 C 62 % -1.75 C
804 11-02-2006 14:06:05 5 C 58 % -2.56 C
805 11-02-2006 14:16:06 4.7 C 58 % -2.84 C
806 11-02-2006 14:26:06 4.7 C 59 % -2.61 C
807 11-02-2006 14:36:06 4.7 C 58 % -2.84 C
808 11-02-2006 14:46:05 5.1 C 57 % -2.7 C
809 11-02-2006 14:56:05 5.6 C 55 % -2.71 C
810 11-02-2006 15:06:05 5.9 C 50 % -3.71 C
811 11-02-2006 15:16:05 6 C 48 % -4.16 C
812 11-02-2006 15:26:05 6.2 C 46 % -4.54 C
813 11-02-2006 15:36:05 5.7 C 46 % -5 C
814 11-02-2006 15:46:05 5.2 C 47 % -5.17 C
815 11-02-2006 15:56:05 5.4 C 50 % -4.17 C
816 11-02-2006 16:06:06 5.4 C 48 % -4.71 C
817 11-02-2006 16:16:06 5.1 C 48 % -4.99 C
818 11-02-2006 16:26:06 4.7 C 53 % -4.05 C
819 11-02-2006 16:36:05 4.5 C 55 % -3.74 C
820 11-02-2006 16:46:06 4.3 C 56 % -3.69 C
821 11-02-2006 16:56:06 4 C 56 % -3.97 C
822 11-02-2006 17:06:05 3.8 C 58 % -3.69 C
823 11-02-2006 17:16:05 3.6 C 59 % -3.65 C
824 11-02-2006 17:26:05 3.4 C 59 % -3.84 C
825 11-02-2006 17:36:06 3.2 C 60 % -3.8 C
Sensor: Nr:Datum:Temp:Feuchte:Taupunkt:
Aussen-T/F 826 11-02-2006 17:46:05 2.8 C 61 % -3.96 C
827 11-02-2006 17:56:05 2.7 C 65 % -3.21 C
828 11-02-2006 18:06:06 2.6 C 68 % -2.7 C
829 11-02-2006 18:16:06 2.4 C 68 % -2.89 C
830 11-02-2006 18:26:06 2.2 C 66 % -3.48 C
831 11-02-2006 18:36:06 2 C 68 % -3.27 C
832 11-02-2006 18:46:06 2 C 67 % -3.47 C
833 11-02-2006 18:56:06 2 C 68 % -3.27 C
834 11-02-2006 19:06:06 2.1 C 68 % -3.17 C
835 11-02-2006 19:16:06 2.1 C 68 % -3.17 C
836 11-02-2006 19:26:06 1.8 C 68 % -3.46 C
837 11-02-2006 19:36:06 1.8 C 69 % -3.27 C
838 11-02-2006 19:46:06 1.9 C 70 % -2.98 C
839 11-02-2006 19:56:06 1.8 C 70 % -3.07 C
840 11-02-2006 20:06:06 1.8 C 70 % -3.07 C
841 11-02-2006 20:16:05 1.8 C 70 % -3.07 C
842 11-02-2006 20:26:05 1.8 C 70 % -3.07 C
843 11-02-2006 20:36:06 2.1 C 69 % -2.98 C
844 11-02-2006 20:46:06 1.8 C 71 % -2.88 C
845 11-02-2006 20:56:06 1.8 C 71 % -2.88 C
846 11-02-2006 21:06:07 1.8 C 71 % -2.88 C
847 11-02-2006 21:16:06 1.8 C 72 % -2.7 C
848 11-02-2006 21:26:06 1.7 C 72 % -2.79 C
849 11-02-2006 21:36:06 1.6 C 72 % -2.89 C
850 11-02-2006 21:46:06 1.6 C 72 % -2.89 C
Sensor: Nr:Datum:Temp:Feuchte:Taupunkt:
Aussen-T/F 851 11-02-2006 21:56:06 1.5 C 72 % -2.99 C
852 11-02-2006 22:06:06 1.5 C 72 % -2.99 C
853 11-02-2006 22:16:06 1.5 C 72 % -2.99 C
854 11-02-2006 22:26:06 1.4 C 72 % -3.08 C
855 11-02-2006 22:36:06 1.4 C 71 % -3.27 C
856 11-02-2006 22:46:06 1.4 C 70 % -3.46 C
857 11-02-2006 22:56:06 1.4 C 71 % -3.27 C
858 11-02-2006 23:06:07 1.3 C 72 % -3.18 C
859 11-02-2006 23:16:06 1.3 C 71 % -3.36 C
860 11-02-2006 23:26:06 1.3 C 71 % -3.36 C
861 11-02-2006 23:36:06 1.3 C 71 % -3.36 C
862 11-02-2006 23:46:06 1.2 C 71 % -3.46 C
863 11-02-2006 23:56:06 1.2 C 71 % -3.46 C
864 12-02-2006 00:06:06 1.2 C 72 % -3.27 C
865 12-02-2006 00:16:07 1.1 C 72 % -3.37 C
866 12-02-2006 00:26:07 1.1 C 72 % -3.37 C
867 12-02-2006 00:36:07 1 C 73 % -3.28 C
868 12-02-2006 00:46:07 1 C 73 % -3.28 C
869 12-02-2006 00:56:07 1 C 73 % -3.28 C
870 12-02-2006 01:06:06 1 C 73 % -3.28 C
871 12-02-2006 01:16:07 0.9 C 74 % -3.2 C
872 12-02-2006 01:26:07 0.9 C 74 % -3.2 C
873 12-02-2006 01:36:07 0.9 C 74 % -3.2 C
874 12-02-2006 01:46:06 0.8 C 74 % -3.29 C
875 12-02-2006 01:56:06 0.8 C 74 % -3.29 C
Sensor: Nr:Datum:Temp:Feuchte:Taupunkt:
Aussen-T/F 876 12-02-2006 02:06:07 0.8 C 74 % -3.29 C
877 12-02-2006 02:16:06 0.8 C 74 % -3.29 C
878 12-02-2006 02:26:06 0.7 C 74 % -3.39 C
879 12-02-2006 02:36:06 0.7 C 74 % -3.39 C
880 12-02-2006 02:47:08 0.7 C 74 % -3.39 C
881 12-02-2006 02:57:08 0.6 C 74 % -3.49 C
882 12-02-2006 03:07:08 0.6 C 75 % -3.31 C
883 12-02-2006 03:17:08 0.5 C 75 % -3.4 C
884 12-02-2006 03:27:08 0.5 C 75 % -3.4 C
885 12-02-2006 03:37:08 0.5 C 75 % -3.4 C
886 12-02-2006 03:47:08 0.4 C 75 % -3.5 C
887 12-02-2006 03:57:08 0.5 C 75 % -3.4 C
888 12-02-2006 04:07:08 0.5 C 75 % -3.4 C
889 12-02-2006 04:17:08 0.4 C 75 % -3.5 C
890 12-02-2006 04:27:08 0.4 C 75 % -3.5 C
891 12-02-2006 04:37:08 0.4 C 75 % -3.5 C
892 12-02-2006 04:47:08 0.4 C 75 % -3.5 C
893 12-02-2006 04:57:09 0.4 C 75 % -3.5 C
894 12-02-2006 05:07:08 0.4 C 75 % -3.5 C
895 12-02-2006 05:17:08 0.3 C 74 % -3.78 C
896 12-02-2006 05:27:08 0.3 C 74 % -3.78 C
897 12-02-2006 05:37:08 0.2 C 74 % -3.87 C
898 12-02-2006 05:47:08 0.2 C 74 % -3.87 C
899 12-02-2006 05:57:08 0.2 C 74 % -3.87 C
900 12-02-2006 06:07:09 0.2 C 74 % -3.87 C
Sensor: Nr:Datum:Temp:Feuchte:Taupunkt:
Aussen-T/F 901 12-02-2006 06:17:08 0.2 C 75 % -3.69 C
902 12-02-2006 06:27:08 0.2 C 75 % -3.69 C
903 12-02-2006 06:37:08 0.2 C 75 % -3.69 C
904 12-02-2006 06:47:09 0.1 C 75 % -3.79 C
905 12-02-2006 06:57:09 0.1 C 75 % -3.79 C
906 12-02-2006 07:07:08 0.2 C 75 % -3.69 C
907 12-02-2006 07:17:08 0.1 C 75 % -3.79 C
908 12-02-2006 07:27:08 0.1 C 75 % -3.79 C
909 12-02-2006 07:37:08 0.1 C 75 % -3.79 C
910 12-02-2006 07:47:08 0.1 C 75 % -3.79 C
911 12-02-2006 07:57:08 0.1 C 74 % -3.97 C
912 12-02-2006 08:07:08 0.1 C 74 % -3.97 C
913 12-02-2006 08:17:09 0.1 C 74 % -3.97 C
914 12-02-2006 08:27:09 0.2 C 74 % -3.87 C
915 12-02-2006 08:37:09 0.3 C 73 % -3.96 C
916 12-02-2006 08:47:08 0.3 C 72 % -4.14 C
917 12-02-2006 08:57:08 0.4 C 72 % -4.04 C
918 12-02-2006 09:07:08 0.5 C 72 % -3.95 C
919 12-02-2006 09:17:08 0.6 C 71 % -4.04 C
920 12-02-2006 09:27:08 0.7 C 71 % -3.94 C
921 12-02-2006 09:37:09 0.7 C 70 % -4.13 C
922 12-02-2006 09:47:08 0.9 C 70 % -3.94 C
923 12-02-2006 09:57:08 1.1 C 68 % -4.13 C
924 12-02-2006 10:07:08 1.2 C 67 % -4.23 C
925 12-02-2006 10:17:09 1 C 67 % -4.42 C
Sensor: Nr:Datum:Temp:Feuchte:Taupunkt:
Aussen-T/F 926 12-02-2006 10:27:09 1 C 67 % -4.42 C
927 12-02-2006 10:37:09 1.1 C 68 % -4.13 C
928 12-02-2006 10:47:09 1.6 C 66 % -4.05 C
929 12-02-2006 10:57:09 2 C 61 % -4.71 C
930 12-02-2006 11:07:09 2.5 C 57 % -5.14 C
931 12-02-2006 11:17:09 2.6 C 56 % -5.28 C
932 12-02-2006 11:27:09 2.8 C 55 % -5.33 C
933 12-02-2006 11:37:09 3 C 52 % -5.87 C
934 12-02-2006 11:47:09 3.3 C 50 % -6.11 C
935 12-02-2006 11:57:09 3.4 C 48 % -6.55 C
936 12-02-2006 12:07:09 3.6 C 46 % -6.92 C
937 12-02-2006 12:17:08 3.6 C 43 % -7.79 C
938 12-02-2006 12:27:08 3.7 C 41 % -8.31 C
939 12-02-2006 12:37:10 3.8 C 41 % -8.22 C
940 12-02-2006 12:47:08 4 C 40 % -8.35 C
941 12-02-2006 12:57:08 4.1 C 39 % -8.59 C
942 12-02-2006 13:07:09 4 C 38 % -9.01 C
943 12-02-2006 13:17:09 4 C 37 % -9.35 C
944 12-02-2006 13:27:09 4.3 C 37 % -9.08 C
945 12-02-2006 13:37:09 4.5 C 35 % -9.6 C
946 12-02-2006 13:47:09 4.8 C 34 % -9.71 C
947 12-02-2006 13:57:09 4.5 C 32 % -10.73 C
948 12-02-2006 14:07:09 5 C 31 % -10.69 C
949 12-02-2006 14:17:09 5.1 C 28 % -11.87 C
950 12-02-2006 14:27:09 5.3 C 26 % -12.62 C
Sensor: Nr:Datum:Temp:Feuchte:Taupunkt:
Aussen-T/F 951 12-02-2006 14:37:09 5.3 C 27 % -12.15 C
952 12-02-2006 14:47:09 4.7 C 30 % -11.36 C
953 12-02-2006 14:57:09 4.5 C 32 % -10.73 C
954 12-02-2006 15:07:09 5.1 C 34 % -9.44 C
955 12-02-2006 15:17:09 4.7 C 34 % -9.79 C
956 12-02-2006 15:27:09 5.2 C 33 % -9.73 C
957 12-02-2006 15:37:09 4.6 C 34 % -9.88 C
958 12-02-2006 15:47:09 4.5 C 35 % -9.6 C
959 12-02-2006 15:57:09 4.5 C 36 % -9.25 C
960 12-02-2006 16:07:09 4.3 C 37 % -9.08 C
961 12-02-2006 16:17:09 4 C 40 % -8.35 C
962 12-02-2006 16:27:09 4 C 43 % -7.42 C
963 12-02-2006 16:37:10 4.1 C 42 % -7.64 C
964 12-02-2006 16:47:09 4 C 43 % -7.42 C
965 12-02-2006 16:57:10 3.7 C 45 % -7.11 C
966 12-02-2006 17:07:09 3.3 C 48 % -6.64 C
967 12-02-2006 17:17:09 2.9 C 48 % -7.01 C
968 12-02-2006 17:27:09 2.6 C 49 % -7.02 C
969 12-02-2006 17:37:10 2.3 C 52 % -6.52 C
970 12-02-2006 17:47:09 2.3 C 53 % -6.28 C
971 12-02-2006 17:57:09 2.3 C 53 % -6.28 C
972 12-02-2006 18:07:09 2.2 C 52 % -6.62 C
973 12-02-2006 18:17:10 2.2 C 53 % -6.37 C
974 12-02-2006 18:27:10 2.2 C 52 % -6.62 C
975 12-02-2006 18:37:10 2.2 C 52 % -6.62 C
Sensor: Nr:Datum:Temp:Feuchte:Taupunkt:
Aussen-T/F 976 12-02-2006 18:47:10 2.2 C 51 % -6.87 C
977 12-02-2006 18:57:10 2.2 C 50 % -7.12 C
978 12-02-2006 19:07:11 2.2 C 51 % -6.87 C
979 12-02-2006 19:17:09 2 C 50 % -7.31 C
980 12-02-2006 19:27:09 2.2 C 50 % -7.12 C
981 12-02-2006 19:37:09 2.2 C 48 % -7.65 C
982 12-02-2006 19:47:09 1.9 C 50 % -7.4 C
983 12-02-2006 19:57:09 1.8 C 51 % -7.24 C
984 12-02-2006 20:07:10 1.6 C 51 % -7.42 C
985 12-02-2006 20:17:10 1.5 C 50 % -7.77 C
986 12-02-2006 20:27:10 1.3 C 52 % -7.45 C
987 12-02-2006 20:37:10 1 C 53 % -7.48 C
988 12-02-2006 20:47:10 0.7 C 56 % -7.05 C
989 12-02-2006 20:57:11 0.5 C 58 % -6.79 C
990 12-02-2006 21:07:10 0.3 C 58 % -6.97 C
991 12-02-2006 21:17:09 0.2 C 59 % -6.85 C
992 12-02-2006 21:27:09 0.2 C 58 % -7.07 C
993 12-02-2006 21:37:10 0.1 C 58 % -7.16 C
994 12-02-2006 21:47:10 0 C 59 % -7.04 C
995 12-02-2006 21:57:10 -0.1 C 59 % -7.14 C
996 12-02-2006 22:07:10 -0.1 C 59 % -7.14 C
997 12-02-2006 22:17:10 -0.3 C 59 % -7.33 C
998 12-02-2006 22:27:10 -0.2 C 59 % -7.23 C
999 12-02-2006 22:37:10 -0.4 C 59 % -7.42 C
1000 12-02-2006 22:47:10 -0.5 C 59 % -7.52 C
Sensor: Nr:Datum:Temp:Feuchte:Taupunkt:
Aussen-T/F 1001 12-02-2006 22:57:10 -0.4 C 60 % -7.2 C
1002 12-02-2006 23:07:09 -0.5 C 61 % -7.08 C
1003 12-02-2006 23:17:10 -0.7 C 61 % -7.27 C
1004 12-02-2006 23:27:10 -0.7 C 62 % -7.06 C
1005 12-02-2006 23:37:10 -0.6 C 63 % -6.76 C
1006 12-02-2006 23:47:10 -0.4 C 62 % -6.78 C
1007 12-02-2006 23:57:10 0 C 62 % -6.39 C

Legende:
   Min
   Max


Maximal/Minimal-Werte vom 06.02.2006 - 12.02.2006

Sensor Min Max Avg
Temp
(Aussen-T/F)
-2 °C
11-02-2006  03:26:05
6.2 °C
11-02-2006  15:26:05
2.31 °C
Feuchte
(Aussen-T/F)
26 %
12-02-2006  14:27:09
92 %
06-02-2006  08:31:44
75.36 %
Taupunkt
(Aussen-T/F)
-12.62 C
12-02-2006  14:27:09
1.74 C
08-02-2006  01:12:50
-1.81 C

Die Daten stammen von einer Davis Vantage Pro 2 Wetter-Station und werden unter Linux mit der Software wview2wettercgi und aufbereitet. Alle Angaben erfolgen ohne Gewähr für ihre Vollständigkeit oder Richtigkeit.
Kontakt: Rainer Krienke krienke@uni-koblenz.de . Meine Webseiten an der Uni Koblenz oder privat.
Version: $Revision: 0.78 $